sensor_id;sensor_type;location;lat;lon;timestamp;pressure;altitude;pressure_sealevel;temperature;humidity
84255;BME280;74400;44.692;18.998;2024-03-17T00:00:31;100209.72;;;10.00;79.63
84255;BME280;74400;44.692;18.998;2024-03-17T00:02:57;100217.34;;;10.01;78.29
84255;BME280;74400;44.692;18.998;2024-03-17T00:05:22;100211.19;;;10.04;78.27
84255;BME280;74400;44.692;18.998;2024-03-17T00:07:48;100209.16;;;9.95;78.25
84255;BME280;74400;44.692;18.998;2024-03-17T00:10:14;100203.34;;;9.91;77.74
84255;BME280;74400;44.692;18.998;2024-03-17T00:12:40;100213.81;;;9.88;78.61
84255;BME280;74400;44.692;18.998;2024-03-17T00:15:07;100215.47;;;9.89;78.90
84255;BME280;74400;44.692;18.998;2024-03-17T00:17:33;100216.41;;;9.88;78.67
84255;BME280;74400;44.692;18.998;2024-03-17T00:20:03;100209.88;;;9.97;77.98
84255;BME280;74400;44.692;18.998;2024-03-17T00:22:35;100220.72;;;10.02;77.84
84255;BME280;74400;44.692;18.998;2024-03-17T00:25:08;100211.00;;;9.93;78.13
84255;BME280;74400;44.692;18.998;2024-03-17T00:27:34;100203.19;;;9.94;78.60
84255;BME280;74400;44.692;18.998;2024-03-17T00:30:06;100206.34;;;9.99;78.66
84255;BME280;74400;44.692;18.998;2024-03-17T00:32:35;100199.91;;;10.07;78.08
84255;BME280;74400;44.692;18.998;2024-03-17T00:35:01;100206.34;;;10.14;77.45
84255;BME280;74400;44.692;18.998;2024-03-17T00:37:27;100206.63;;;10.23;76.69
84255;BME280;74400;44.692;18.998;2024-03-17T00:39:53;100205.41;;;10.15;77.37
84255;BME280;74400;44.692;18.998;2024-03-17T00:42:19;100208.19;;;10.12;77.45
84255;BME280;74400;44.692;18.998;2024-03-17T00:44:45;100207.25;;;10.13;76.25
84255;BME280;74400;44.692;18.998;2024-03-17T00:47:10;100208.81;;;10.15;76.94
84255;BME280;74400;44.692;18.998;2024-03-17T00:49:36;100204.59;;;10.14;76.22
84255;BME280;74400;44.692;18.998;2024-03-17T00:52:01;100212.41;;;10.13;76.25
84255;BME280;74400;44.692;18.998;2024-03-17T00:54:27;100214.22;;;10.11;76.38
84255;BME280;74400;44.692;18.998;2024-03-17T00:56:53;100216.50;;;10.01;77.15
84255;BME280;74400;44.692;18.998;2024-03-17T00:59:18;100212.81;;;9.91;76.81
84255;BME280;74400;44.692;18.998;2024-03-17T01:01:44;100211.50;;;9.84;77.64
84255;BME280;74400;44.692;18.998;2024-03-17T01:04:09;100207.03;;;9.87;77.75
84255;BME280;74400;44.692;18.998;2024-03-17T01:06:35;100211.16;;;9.90;77.64
84255;BME280;74400;44.692;18.998;2024-03-17T01:09:01;100216.97;;;9.93;77.07
84255;BME280;74400;44.692;18.998;2024-03-17T01:11:27;100202.28;;;9.95;77.95
84255;BME280;74400;44.692;18.998;2024-03-17T01:13:53;100210.34;;;9.89;78.03
84255;BME280;74400;44.692;18.998;2024-03-17T01:16:18;100206.84;;;9.90;78.20
84255;BME280;74400;44.692;18.998;2024-03-17T01:18:44;100217.13;;;9.90;77.82
84255;BME280;74400;44.692;18.998;2024-03-17T01:21:11;100212.44;;;9.97;77.66
84255;BME280;74400;44.692;18.998;2024-03-17T01:23:37;100212.56;;;9.95;78.10
84255;BME280;74400;44.692;18.998;2024-03-17T01:26:02;100217.53;;;9.98;77.93
84255;BME280;74400;44.692;18.998;2024-03-17T01:28:28;100207.25;;;9.98;78.59
84255;BME280;74400;44.692;18.998;2024-03-17T01:30:54;100213.84;;;10.02;80.07
84255;BME280;74400;44.692;18.998;2024-03-17T01:33:19;100219.53;;;9.93;78.50
84255;BME280;74400;44.692;18.998;2024-03-17T01:35:45;100221.63;;;9.87;79.56
84255;BME280;74400;44.692;18.998;2024-03-17T01:38:11;100218.22;;;9.86;79.65
84255;BME280;74400;44.692;18.998;2024-03-17T01:40:37;100210.53;;;9.86;79.46
84255;BME280;74400;44.692;18.998;2024-03-17T01:43:02;100219.41;;;9.81;79.92
84255;BME280;74400;44.692;18.998;2024-03-17T01:58:38;100219.66;;;9.76;80.70
84255;BME280;74400;44.692;18.998;2024-03-17T02:01:04;100216.19;;;9.77;80.75
84255;BME280;74400;44.692;18.998;2024-03-17T02:03:30;100221.31;;;9.77;80.59
84255;BME280;74400;44.692;18.998;2024-03-17T02:05:57;100230.13;;;9.73;80.60
84255;BME280;74400;44.692;18.998;2024-03-17T02:08:23;100221.50;;;9.74;80.81
84255;BME280;74400;44.692;18.998;2024-03-17T02:10:54;100221.94;;;9.66;80.45
84255;BME280;74400;44.692;18.998;2024-03-17T02:13:21;100218.81;;;9.61;81.52
84255;BME280;74400;44.692;18.998;2024-03-17T02:15:47;100217.88;;;9.62;81.23
84255;BME280;74400;44.692;18.998;2024-03-17T02:18:13;100217.22;;;9.59;81.72
84255;BME280;74400;44.692;18.998;2024-03-17T02:20:39;100213.38;;;9.66;82.37
84255;BME280;74400;44.692;18.998;2024-03-17T02:23:07;100210.75;;;9.67;81.33
84255;BME280;74400;44.692;18.998;2024-03-17T02:25:33;100220.84;;;9.70;81.88
84255;BME280;74400;44.692;18.998;2024-03-17T02:27:59;100220.75;;;9.72;82.37
84255;BME280;74400;44.692;18.998;2024-03-17T02:30:24;100217.28;;;9.73;81.85
84255;BME280;74400;44.692;18.998;2024-03-17T02:32:53;100219.66;;;9.76;81.27
84255;BME280;74400;44.692;18.998;2024-03-17T02:35:21;100214.38;;;9.79;81.12
84255;BME280;74400;44.692;18.998;2024-03-17T02:37:47;100213.59;;;9.77;80.94
84255;BME280;74400;44.692;18.998;2024-03-17T02:40:13;100208.66;;;9.74;81.39
84255;BME280;74400;44.692;18.998;2024-03-17T02:42:39;100204.34;;;9.74;81.89
84255;BME280;74400;44.692;18.998;2024-03-17T02:45:06;100210.47;;;9.72;81.36
84255;BME280;74400;44.692;18.998;2024-03-17T02:47:34;100204.94;;;9.64;81.63
84255;BME280;74400;44.692;18.998;2024-03-17T02:50:00;100212.00;;;9.60;82.20
84255;BME280;74400;44.692;18.998;2024-03-17T02:52:26;100212.06;;;9.59;82.55
84255;BME280;74400;44.692;18.998;2024-03-17T02:54:52;100208.88;;;9.55;81.70
84255;BME280;74400;44.692;18.998;2024-03-17T02:57:18;100214.09;;;9.54;82.45
84255;BME280;74400;44.692;18.998;2024-03-17T02:59:44;100208.88;;;9.55;82.90
84255;BME280;74400;44.692;18.998;2024-03-17T03:02:11;100214.09;;;9.54;83.00
84255;BME280;74400;44.692;18.998;2024-03-17T03:04:37;100209.31;;;9.47;82.71
84255;BME280;74400;44.692;18.998;2024-03-17T03:07:03;100210.88;;;9.50;83.30
84255;BME280;74400;44.692;18.998;2024-03-17T03:09:29;100215.31;;;9.46;83.39
84255;BME280;74400;44.692;18.998;2024-03-17T03:11:58;100212.69;;;9.48;83.97
84255;BME280;74400;44.692;18.998;2024-03-17T03:14:25;100209.13;;;9.50;83.70
84255;BME280;74400;44.692;18.998;2024-03-17T03:16:50;100212.06;;;9.59;83.09
84255;BME280;74400;44.692;18.998;2024-03-17T03:19:16;100206.13;;;9.58;84.07
84255;BME280;74400;44.692;18.998;2024-03-17T03:21:42;100214.59;;;9.60;83.13
84255;BME280;74400;44.692;18.998;2024-03-17T03:24:08;100215.94;;;9.66;83.33
84255;BME280;74400;44.692;18.998;2024-03-17T03:26:33;100227.13;;;9.65;83.05
84255;BME280;74400;44.692;18.998;2024-03-17T03:28:59;100225.41;;;9.65;83.21
84255;BME280;74400;44.692;18.998;2024-03-17T03:31:25;100232.28;;;9.65;83.19
84255;BME280;74400;44.692;18.998;2024-03-17T03:33:50;100232.28;;;9.65;83.22
84255;BME280;74400;44.692;18.998;2024-03-17T03:36:16;100240.06;;;9.63;83.26
84255;BME280;74400;44.692;18.998;2024-03-17T03:38:46;100234.38;;;9.58;82.87
84255;BME280;74400;44.692;18.998;2024-03-17T03:41:14;100239.59;;;9.57;83.20
84255;BME280;74400;44.692;18.998;2024-03-17T03:43:40;100239.25;;;9.63;83.26
84255;BME280;74400;44.692;18.998;2024-03-17T03:46:07;100244.78;;;9.71;82.95
84255;BME280;74400;44.692;18.998;2024-03-17T03:48:33;100249.34;;;9.66;82.92
84255;BME280;74400;44.692;18.998;2024-03-17T03:51:07;100253.06;;;9.76;83.59
84255;BME280;74400;44.692;18.998;2024-03-17T03:53:33;100247.19;;;9.74;83.86
84255;BME280;74400;44.692;18.998;2024-03-17T03:56:00;100242.53;;;9.81;83.50
84255;BME280;74400;44.692;18.998;2024-03-17T03:58:29;100243.16;;;9.84;82.93
84255;BME280;74400;44.692;18.998;2024-03-17T04:00:55;100249.44;;;9.94;83.18
84255;BME280;74400;44.692;18.998;2024-03-17T04:03:21;100244.88;;;9.99;83.15
84255;BME280;74400;44.692;18.998;2024-03-17T04:05:47;100250.38;;;10.08;84.00
84255;BME280;74400;44.692;18.998;2024-03-17T04:08:13;100256.34;;;10.08;83.31
84255;BME280;74400;44.692;18.998;2024-03-17T04:10:39;100260.81;;;10.04;83.01
84255;BME280;74400;44.692;18.998;2024-03-17T04:13:04;100260.47;;;10.11;83.11
84255;BME280;74400;44.692;18.998;2024-03-17T04:15:30;100265.72;;;10.09;82.68
84255;BME280;74400;44.692;18.998;2024-03-17T04:17:56;100269.09;;;10.10;82.93
84255;BME280;74400;44.692;18.998;2024-03-17T04:20:22;100273.97;;;10.00;82.94
84255;BME280;74400;44.692;18.998;2024-03-17T04:22:47;100275.47;;;9.88;83.97
84255;BME280;74400;44.692;18.998;2024-03-17T04:25:14;100267.72;;;9.74;84.16
84255;BME280;74400;44.692;18.998;2024-03-17T04:27:40;100261.16;;;9.54;84.29
84255;BME280;74400;44.692;18.998;2024-03-17T04:30:07;100262.16;;;9.36;85.99
84255;BME280;74400;44.692;18.998;2024-03-17T04:32:33;100258.75;;;9.35;86.83
84255;BME280;74400;44.692;18.998;2024-03-17T04:34:59;100269.44;;;9.43;87.61
84255;BME280;74400;44.692;18.998;2024-03-17T04:37:25;100280.44;;;9.61;86.79
84255;BME280;74400;44.692;18.998;2024-03-17T04:39:51;100283.47;;;9.68;85.92
84255;BME280;74400;44.692;18.998;2024-03-17T04:42:17;100281.06;;;9.65;86.77
84255;BME280;74400;44.692;18.998;2024-03-17T04:44:44;100274.88;;;9.69;87.06
84255;BME280;74400;44.692;18.998;2024-03-17T04:47:10;100286.06;;;9.68;87.63
84255;BME280;74400;44.692;18.998;2024-03-17T04:52:02;100298.22;;;9.64;87.89
84255;BME280;74400;44.692;18.998;2024-03-17T04:54:28;100302.63;;;9.62;87.57
84255;BME280;74400;44.692;18.998;2024-03-17T04:56:54;100296.09;;;9.57;88.35
84255;BME280;74400;44.692;18.998;2024-03-17T04:59:19;100305.69;;;9.53;88.97
84255;BME280;74400;44.692;18.998;2024-03-17T05:01:45;100307.59;;;9.49;88.57
84255;BME280;74400;44.692;18.998;2024-03-17T05:04:11;100311.00;;;9.50;89.62
84255;BME280;74400;44.692;18.998;2024-03-17T05:06:36;100311.91;;;9.49;89.46
84255;BME280;74400;44.692;18.998;2024-03-17T05:09:02;100334.78;;;9.54;89.43
84255;BME280;74400;44.692;18.998;2024-03-17T05:11:30;100336.09;;;9.61;89.76
84255;BME280;74400;44.692;18.998;2024-03-17T05:13:56;100335.44;;;9.73;89.48
84255;BME280;74400;44.692;18.998;2024-03-17T05:16:22;100341.31;;;9.75;89.52
84255;BME280;74400;44.692;18.998;2024-03-17T05:18:50;100353.63;;;9.84;88.89
84255;BME280;74400;44.692;18.998;2024-03-17T05:21:16;100354.06;;;9.92;89.03
84255;BME280;74400;44.692;18.998;2024-03-17T05:23:42;100362.97;;;10.01;88.30
84255;BME280;74400;44.692;18.998;2024-03-17T05:26:08;100362.38;;;10.12;87.76
84255;BME280;74400;44.692;18.998;2024-03-17T05:28:33;100359.34;;;10.05;88.46
84255;BME280;74400;44.692;18.998;2024-03-17T05:30:59;100363.63;;;10.04;89.53
84255;BME280;74400;44.692;18.998;2024-03-17T05:33:26;100370.50;;;10.04;88.71
84255;BME280;74400;44.692;18.998;2024-03-17T05:35:56;100367.88;;;10.06;89.45
84255;BME280;74400;44.692;18.998;2024-03-17T05:38:23;100373.16;;;10.02;90.63
84255;BME280;74400;44.692;18.998;2024-03-17T05:41:00;100371.41;;;10.03;90.11
84255;BME280;74400;44.692;18.998;2024-03-17T05:43:30;100366.94;;;10.07;89.25
84255;BME280;74400;44.692;18.998;2024-03-17T05:45:58;100374.47;;;10.10;89.77
84255;BME280;74400;44.692;18.998;2024-03-17T05:48:24;100370.00;;;10.13;89.48
84255;BME280;74400;44.692;18.998;2024-03-17T05:50:50;100378.53;;;10.14;90.55
84255;BME280;74400;44.692;18.998;2024-03-17T05:53:20;100374.13;;;10.16;90.36
84255;BME280;74400;44.692;18.998;2024-03-17T05:55:46;100374.72;;;10.21;90.23
84255;BME280;74400;44.692;18.998;2024-03-17T05:58:11;100371.38;;;10.35;90.11
84255;BME280;74400;44.692;18.998;2024-03-17T06:00:41;100381.91;;;10.30;89.99
84255;BME280;74400;44.692;18.998;2024-03-17T06:03:08;100383.66;;;10.29;90.24
84255;BME280;74400;44.692;18.998;2024-03-17T06:05:38;100374.88;;;10.34;89.53
84255;BME280;74400;44.692;18.998;2024-03-17T06:08:06;100378.88;;;10.23;89.66
84255;BME280;74400;44.692;18.998;2024-03-17T06:10:36;100382.41;;;10.21;90.16
84255;BME280;74400;44.692;18.998;2024-03-17T06:13:03;100385.25;;;10.32;90.50
84255;BME280;74400;44.692;18.998;2024-03-17T06:15:29;100388.94;;;10.42;89.75
84255;BME280;74400;44.692;18.998;2024-03-17T06:17:55;100398.88;;;10.48;89.90
84255;BME280;74400;44.692;18.998;2024-03-17T06:20:23;100392.66;;;10.52;89.47
84255;BME280;74400;44.692;18.998;2024-03-17T06:22:49;100400.38;;;10.52;90.61
84255;BME280;74400;44.692;18.998;2024-03-17T06:25:16;100394.16;;;10.56;90.63
84255;BME280;74400;44.692;18.998;2024-03-17T06:27:42;100400.59;;;10.78;89.48
84255;BME280;74400;44.692;18.998;2024-03-17T06:30:14;100400.44;;;10.95;89.11
84255;BME280;74400;44.692;18.998;2024-03-17T06:32:40;100405.03;;;11.19;88.89
84255;BME280;74400;44.692;18.998;2024-03-17T06:35:06;100407.44;;;11.36;88.29
84255;BME280;74400;44.692;18.998;2024-03-17T06:37:32;100412.00;;;11.45;88.67
84255;BME280;74400;44.692;18.998;2024-03-17T06:39:58;100412.97;;;11.71;87.90
84255;BME280;74400;44.692;18.998;2024-03-17T06:42:24;100424.41;;;11.81;88.73
84255;BME280;74400;44.692;18.998;2024-03-17T06:44:49;100412.56;;;12.06;86.85
84255;BME280;74400;44.692;18.998;2024-03-17T06:47:16;100417.41;;;12.10;84.92
84255;BME280;74400;44.692;18.998;2024-03-17T06:49:42;100421.59;;;12.65;87.37
84255;BME280;74400;44.692;18.998;2024-03-17T06:52:08;100429.38;;;13.16;84.28
84255;BME280;74400;44.692;18.998;2024-03-17T06:54:34;100422.16;;;13.09;81.18
84255;BME280;74400;44.692;18.998;2024-03-17T06:57:01;100426.38;;;12.97;81.02
84255;BME280;74400;44.692;18.998;2024-03-17T06:59:26;100433.72;;;12.90;79.42
84255;BME280;74400;44.692;18.998;2024-03-17T07:01:52;100440.06;;;12.59;81.32
84255;BME280;74400;44.692;18.998;2024-03-17T07:04:18;100442.19;;;12.40;82.21
84255;BME280;74400;44.692;18.998;2024-03-17T07:06:43;100441.97;;;12.30;83.58
84255;BME280;74400;44.692;18.998;2024-03-17T07:09:09;100443.09;;;12.39;84.40
84255;BME280;74400;44.692;18.998;2024-03-17T07:11:35;100445.59;;;12.40;83.45
84255;BME280;74400;44.692;18.998;2024-03-17T07:14:01;100450.41;;;12.32;83.80
84255;BME280;74400;44.692;18.998;2024-03-17T07:16:28;100452.94;;;12.46;82.54
84255;BME280;74400;44.692;18.998;2024-03-17T07:18:54;100451.00;;;12.50;81.13
84255;BME280;74400;44.692;18.998;2024-03-17T07:21:21;100459.06;;;12.71;79.38
84255;BME280;74400;44.692;18.998;2024-03-17T07:23:47;100459.81;;;12.86;80.04
84255;BME280;74400;44.692;18.998;2024-03-17T07:26:13;100458.16;;;12.85;78.19
84255;BME280;74400;44.692;18.998;2024-03-17T07:28:40;100459.44;;;13.17;76.26
84255;BME280;74400;44.692;18.998;2024-03-17T07:31:08;100461.00;;;13.33;77.47
84255;BME280;74400;44.692;18.998;2024-03-17T07:33:35;100464.59;;;13.43;76.23
84255;BME280;74400;44.692;18.998;2024-03-17T07:36:00;100470.59;;;13.43;75.81
84255;BME280;74400;44.692;18.998;2024-03-17T07:38:28;100463.78;;;13.30;75.85
84255;BME280;74400;44.692;18.998;2024-03-17T07:41:03;100468.97;;;13.30;77.08
84255;BME280;74400;44.692;18.998;2024-03-17T07:43:31;100471.97;;;13.36;77.20
84255;BME280;74400;44.692;18.998;2024-03-17T07:46:01;100472.16;;;13.95;75.18
84255;BME280;74400;44.692;18.998;2024-03-17T07:48:27;100466.84;;;14.33;72.01
84255;BME280;74400;44.692;18.998;2024-03-17T07:51:07;100470.69;;;14.76;70.33
84255;BME280;74400;44.692;18.998;2024-03-17T07:53:35;100475.78;;;16.23;65.62
84255;BME280;74400;44.692;18.998;2024-03-17T07:56:03;100479.72;;;18.33;60.39
84255;BME280;74400;44.692;18.998;2024-03-17T07:58:30;100476.94;;;20.22;54.25
84255;BME280;74400;44.692;18.998;2024-03-17T08:01:03;100474.03;;;21.30;49.01
84255;BME280;74400;44.692;18.998;2024-03-17T08:03:30;100477.59;;;20.06;51.49
84255;BME280;74400;44.692;18.998;2024-03-17T08:05:57;100481.19;;;19.03;53.93
84255;BME280;74400;44.692;18.998;2024-03-17T08:08:23;100488.69;;;17.90;55.63
84255;BME280;74400;44.692;18.998;2024-03-17T08:10:50;100486.66;;;16.81;58.29
84255;BME280;74400;44.692;18.998;2024-03-17T08:13:19;100488.63;;;16.57;60.69
84255;BME280;74400;44.692;18.998;2024-03-17T08:15:46;100486.31;;;16.10;62.48
84255;BME280;74400;44.692;18.998;2024-03-17T08:18:13;100497.41;;;15.90;62.87
84255;BME280;74400;44.692;18.998;2024-03-17T08:20:39;100485.97;;;15.92;62.98
84255;BME280;74400;44.692;18.998;2024-03-17T08:23:06;100496.91;;;16.07;63.89
84255;BME280;74400;44.692;18.998;2024-03-17T08:25:33;100494.44;;;16.17;62.00
84255;BME280;74400;44.692;18.998;2024-03-17T08:27:59;100502.38;;;15.82;64.96
84255;BME280;74400;44.692;18.998;2024-03-17T08:30:25;100505.31;;;15.88;62.95
84255;BME280;74400;44.692;18.998;2024-03-17T08:32:50;100491.88;;;15.61;65.46
84255;BME280;74400;44.692;18.998;2024-03-17T08:35:16;100496.00;;;15.41;64.77
84255;BME280;74400;44.692;18.998;2024-03-17T08:37:42;100497.53;;;15.77;64.33
84255;BME280;74400;44.692;18.998;2024-03-17T08:40:08;100502.25;;;15.83;63.81
84255;BME280;74400;44.692;18.998;2024-03-17T08:42:33;100502.72;;;15.77;64.60
84255;BME280;74400;44.692;18.998;2024-03-17T08:44:59;100491.72;;;16.18;63.32
84255;BME280;74400;44.692;18.998;2024-03-17T08:47:24;100495.03;;;16.41;62.04
84255;BME280;74400;44.692;18.998;2024-03-17T08:49:50;100494.84;;;16.33;60.15
84255;BME280;74400;44.692;18.998;2024-03-17T08:52:17;100497.88;;;16.49;59.55
84255;BME280;74400;44.692;18.998;2024-03-17T08:54:46;100493.72;;;17.51;58.11
84255;BME280;74400;44.692;18.998;2024-03-17T08:57:12;100500.97;;;18.57;53.92
84255;BME280;74400;44.692;18.998;2024-03-17T08:59:38;100504.50;;;19.05;51.80
84255;BME280;74400;44.692;18.998;2024-03-17T09:02:04;100503.72;;;19.41;51.67
84255;BME280;74400;44.692;18.998;2024-03-17T09:04:30;100509.16;;;19.20;50.20
84255;BME280;74400;44.692;18.998;2024-03-17T09:06:56;100507.66;;;19.55;51.14
84255;BME280;74400;44.692;18.998;2024-03-17T09:09:22;100502.22;;;20.21;48.26
84255;BME280;74400;44.692;18.998;2024-03-17T09:11:48;100494.50;;;20.65;48.45
84255;BME280;74400;44.692;18.998;2024-03-17T09:14:14;100490.75;;;21.12;45.98
84255;BME280;74400;44.692;18.998;2024-03-17T09:16:40;100487.59;;;21.00;46.39
84255;BME280;74400;44.692;18.998;2024-03-17T09:19:05;100493.13;;;20.08;47.90
84255;BME280;74400;44.692;18.998;2024-03-17T09:21:31;100492.97;;;19.17;49.18
84255;BME280;74400;44.692;18.998;2024-03-17T09:23:57;100487.66;;;18.80;49.24
84255;BME280;74400;44.692;18.998;2024-03-17T09:26:22;100481.50;;;18.52;49.74
84255;BME280;74400;44.692;18.998;2024-03-17T09:28:48;100483.00;;;18.74;48.63
84255;BME280;74400;44.692;18.998;2024-03-17T09:31:14;100484.66;;;18.94;49.41
84255;BME280;74400;44.692;18.998;2024-03-17T09:33:40;100490.19;;;19.28;46.47
84255;BME280;74400;44.692;18.998;2024-03-17T09:36:07;100484.81;;;19.30;46.66
84255;BME280;74400;44.692;18.998;2024-03-17T09:38:34;100493.63;;;19.19;46.72
84255;BME280;74400;44.692;18.998;2024-03-17T09:41:00;100488.72;;;19.06;47.94
84255;BME280;74400;44.692;18.998;2024-03-17T09:43:32;100487.91;;;19.06;48.64
84255;BME280;74400;44.692;18.998;2024-03-17T09:45:58;100484.91;;;19.01;48.98
84255;BME280;74400;44.692;18.998;2024-03-17T09:48:25;100489.31;;;18.61;49.65
84255;BME280;74400;44.692;18.998;2024-03-17T09:50:59;100477.63;;;20.24;45.89
84255;BME280;74400;44.692;18.998;2024-03-17T09:53:30;100483.56;;;20.88;44.10
84255;BME280;74400;44.692;18.998;2024-03-17T09:56:03;100484.22;;;22.59;40.63
84255;BME280;74400;44.692;18.998;2024-03-17T09:58:31;100477.81;;;23.49;37.98
84255;BME280;74400;44.692;18.998;2024-03-17T10:00:56;100477.50;;;24.15;35.20
84255;BME280;74400;44.692;18.998;2024-03-17T10:03:41;100480.25;;;24.21;32.05
84255;BME280;74400;44.692;18.998;2024-03-17T10:06:08;100479.75;;;23.56;34.94
84255;BME280;74400;44.692;18.998;2024-03-17T10:11:07;100469.66;;;21.81;39.55
84255;BME280;74400;44.692;18.998;2024-03-17T10:13:34;100467.69;;;21.75;39.31
84255;BME280;74400;44.692;18.998;2024-03-17T10:15:59;100466.28;;;20.95;40.84
84255;BME280;74400;44.692;18.998;2024-03-17T10:18:25;100466.50;;;20.40;41.94
84255;BME280;74400;44.692;18.998;2024-03-17T10:20:51;100467.78;;;19.72;41.28
84255;BME280;74400;44.692;18.998;2024-03-17T10:23:20;100467.75;;;19.08;43.44
84255;BME280;74400;44.692;18.998;2024-03-17T10:25:46;100459.72;;;19.29;42.58
84255;BME280;74400;44.692;18.998;2024-03-17T10:28:13;100461.44;;;19.38;41.99
84255;BME280;74400;44.692;18.998;2024-03-17T10:30:40;100462.53;;;19.45;42.82
84255;BME280;74400;44.692;18.998;2024-03-17T10:33:06;100460.16;;;19.61;40.80
84255;BME280;74400;44.692;18.998;2024-03-17T10:35:38;100458.63;;;19.21;41.86
84255;BME280;74400;44.692;18.998;2024-03-17T10:38:05;100457.41;;;19.26;43.04
84255;BME280;74400;44.692;18.998;2024-03-17T10:40:32;100457.41;;;19.26;43.69
84255;BME280;74400;44.692;18.998;2024-03-17T10:43:05;100452.38;;;19.05;44.55
84255;BME280;74400;44.692;18.998;2024-03-17T10:45:32;100446.56;;;18.45;43.11
84255;BME280;74400;44.692;18.998;2024-03-17T10:48:02;100441.59;;;18.22;44.20
84255;BME280;74400;44.692;18.998;2024-03-17T10:50:35;100444.97;;;17.74;44.77
84255;BME280;74400;44.692;18.998;2024-03-17T10:53:03;100434.34;;;18.06;45.38
84255;BME280;74400;44.692;18.998;2024-03-17T10:55:34;100429.69;;;18.20;44.94
84255;BME280;74400;44.692;18.998;2024-03-17T10:58:03;100423.50;;;18.59;44.49
84255;BME280;74400;44.692;18.998;2024-03-17T11:00:34;100426.50;;;18.64;44.21
84255;BME280;74400;44.692;18.998;2024-03-17T11:03:00;100429.78;;;18.86;44.00
84255;BME280;74400;44.692;18.998;2024-03-17T11:05:27;100435.81;;;18.86;42.93
84255;BME280;74400;44.692;18.998;2024-03-17T11:07:59;100432.84;;;18.52;42.52
84255;BME280;74400;44.692;18.998;2024-03-17T11:10:30;100437.91;;;18.05;42.37
84255;BME280;74400;44.692;18.998;2024-03-17T11:12:58;100437.44;;;17.71;43.68
84255;BME280;74400;44.692;18.998;2024-03-17T11:20:34;100434.56;;;17.44;41.86
84255;BME280;74400;44.692;18.998;2024-03-17T11:23:01;100434.91;;;17.70;44.46
84255;BME280;74400;44.692;18.998;2024-03-17T11:28:08;100426.41;;;17.98;43.82
84255;BME280;74400;44.692;18.998;2024-03-17T11:44:24;100412.63;;;17.27;43.70
84255;BME280;74400;44.692;18.998;2024-03-17T11:46:58;100412.34;;;17.20;44.66
84255;BME280;74400;44.692;18.998;2024-03-17T11:49:28;100411.59;;;17.09;45.35
84255;BME280;74400;44.692;18.998;2024-03-17T11:51:58;100414.84;;;16.80;46.64
84255;BME280;74400;44.692;18.998;2024-03-17T11:54:30;100404.00;;;16.54;47.18
84255;BME280;74400;44.692;18.998;2024-03-17T11:57:00;100404.63;;;16.46;47.41
84255;BME280;74400;44.692;18.998;2024-03-17T11:59:26;100394.56;;;16.53;45.45
84255;BME280;74400;44.692;18.998;2024-03-17T12:01:52;100399.44;;;16.46;45.25
84255;BME280;74400;44.692;18.998;2024-03-17T12:04:21;100397.38;;;16.29;46.29
84255;BME280;74400;44.692;18.998;2024-03-17T12:06:51;100384.50;;;16.39;45.98
84255;BME280;74400;44.692;18.998;2024-03-17T12:12:17;100395.47;;;16.42;45.84
84255;BME280;74400;44.692;18.998;2024-03-17T12:14:43;100394.88;;;16.60;44.84
84255;BME280;74400;44.692;18.998;2024-03-17T12:17:11;100380.44;;;16.46;45.84
84255;BME280;74400;44.692;18.998;2024-03-17T12:19:37;100392.88;;;16.63;47.05
84255;BME280;74400;44.692;18.998;2024-03-17T12:22:06;100379.25;;;16.71;46.46
84255;BME280;74400;44.692;18.998;2024-03-17T12:24:36;100368.31;;;16.98;45.26
84255;BME280;74400;44.692;18.998;2024-03-17T12:27:05;100369.56;;;16.94;43.86
84255;BME280;74400;44.692;18.998;2024-03-17T12:29:38;100370.91;;;16.98;44.25
84255;BME280;74400;44.692;18.998;2024-03-17T12:34:33;100363.41;;;16.74;43.38
84255;BME280;74400;44.692;18.998;2024-03-17T12:37:02;100359.25;;;16.62;42.63
84255;BME280;74400;44.692;18.998;2024-03-17T12:39:33;100369.34;;;16.65;42.53
84255;BME280;74400;44.692;18.998;2024-03-17T12:42:11;100358.00;;;16.87;41.69
84255;BME280;74400;44.692;18.998;2024-03-17T12:47:08;100362.53;;;16.64;42.17
84255;BME280;74400;44.692;18.998;2024-03-17T12:49:34;100363.41;;;16.53;42.60
84255;BME280;74400;44.692;18.998;2024-03-17T12:52:00;100362.06;;;16.79;42.19
84255;BME280;74400;44.692;18.998;2024-03-17T12:54:27;100361.78;;;16.73;42.94
84255;BME280;74400;44.692;18.998;2024-03-17T12:57:04;100364.00;;;16.77;43.13
84255;BME280;74400;44.692;18.998;2024-03-17T13:00:16;100363.41;;;16.74;42.01
84255;BME280;74400;44.692;18.998;2024-03-17T13:03:07;100353.47;;;16.37;42.27
84255;BME280;74400;44.692;18.998;2024-03-17T13:05:34;100348.47;;;16.04;44.24
84255;BME280;74400;44.692;18.998;2024-03-17T13:08:00;100346.13;;;15.89;44.77
84255;BME280;74400;44.692;18.998;2024-03-17T13:10:28;100340.91;;;16.01;45.72
84255;BME280;74400;44.692;18.998;2024-03-17T13:13:08;100332.19;;;16.02;45.27
84255;BME280;74400;44.692;18.998;2024-03-17T13:15:35;100336.19;;;16.06;45.44
84255;BME280;74400;44.692;18.998;2024-03-17T13:18:01;100320.84;;;16.03;44.93
84255;BME280;74400;44.692;18.998;2024-03-17T13:20:29;100312.63;;;15.97;44.83
84255;BME280;74400;44.692;18.998;2024-03-17T13:22:56;100314.69;;;15.83;45.63
84255;BME280;74400;44.692;18.998;2024-03-17T13:25:27;100312.50;;;15.67;46.14
84255;BME280;74400;44.692;18.998;2024-03-17T13:27:59;100301.53;;;15.75;45.33
84255;BME280;74400;44.692;18.998;2024-03-17T13:30:26;100298.91;;;15.86;44.77